地図

経路データ

SID SEASON NUMBER BASIN SUBBASIN NAME ISO_TIME NATURE LAT LON WMO_WIND WMO_PRES WMO_AGENCY TRACK_TYPE DIST2LAND LANDFALL IFLAG USA_AGENCY USA_ATCF_ID USA_LAT USA_LON USA_RECORD USA_STATUS USA_WIND USA_PRES USA_SSHS USA_R34_NE USA_R34_SE USA_R34_SW USA_R34_NW USA_R50_NE USA_R50_SE USA_R50_SW USA_R50_NW USA_R64_NE USA_R64_SE USA_R64_SW USA_R64_NW USA_POCI USA_ROCI USA_RMW USA_EYE TOKYO_LAT TOKYO_LON TOKYO_GRADE TOKYO_WIND TOKYO_PRES TOKYO_R50_DIR TOKYO_R50_LONG TOKYO_R50_SHORT TOKYO_R30_DIR TOKYO_R30_LONG TOKYO_R30_SHORT TOKYO_LAND CMA_LAT CMA_LON CMA_CAT CMA_WIND CMA_PRES HKO_LAT HKO_LON HKO_CAT HKO_WIND HKO_PRES NEWDELHI_LAT NEWDELHI_LON NEWDELHI_GRADE NEWDELHI_WIND NEWDELHI_PRES NEWDELHI_CI NEWDELHI_DP NEWDELHI_POCI REUNION_LAT REUNION_LON REUNION_TYPE REUNION_WIND REUNION_PRES REUNION_TNUM REUNION_CI REUNION_RMW REUNION_R34_NE REUNION_R34_SE REUNION_R34_SW REUNION_R34_NW REUNION_R50_NE REUNION_R50_SE REUNION_R50_SW REUNION_R50_NW REUNION_R64_NE REUNION_R64_SE REUNION_R64_SW REUNION_R64_NW BOM_LAT BOM_LON BOM_TYPE BOM_WIND BOM_PRES BOM_TNUM BOM_CI BOM_RMW BOM_R34_NE BOM_R34_SE BOM_R34_SW BOM_R34_NW BOM_R50_NE BOM_R50_SE BOM_R50_SW BOM_R50_NW BOM_R64_NE BOM_R64_SE BOM_R64_SW BOM_R64_NW BOM_ROCI BOM_POCI BOM_EYE BOM_POS_METHOD BOM_PRES_METHOD NADI_LAT NADI_LON NADI_CAT NADI_WIND NADI_PRES WELLINGTON_LAT WELLINGTON_LON WELLINGTON_WIND WELLINGTON_PRES DS824_LAT DS824_LON DS824_STAGE DS824_WIND DS824_PRES TD9636_LAT TD9636_LON TD9636_STAGE TD9636_WIND TD9636_PRES TD9635_LAT TD9635_LON TD9635_WIND TD9635_PRES TD9635_ROCI NEUMANN_LAT NEUMANN_LON NEUMANN_CLASS NEUMANN_WIND NEUMANN_PRES MLC_LAT MLC_LON MLC_CLASS MLC_WIND MLC_PRES USA_GUST BOM_GUST BOM_GUST_PER REUNION_GUST REUNION_GUST_PER USA_SEAHGT USA_SEARAD_NE USA_SEARAD_SE USA_SEARAD_SW USA_SEARAD_NW STORM_SPEED STORM_DIR
1861210N15276 1861 18 NA NA NOT_NAMED 1861-07-28 12:00:00 TS 15.2000 -84.0000 main 0 0 _____________O -1 15.2000 -84.0000 TD 30 10 295
1861210N15276 1861 18 NA NA NOT_NAMED 1861-07-28 15:00:00 TS 15.4002 -84.4473 main 0 0 _____________P -1 15.4002 -84.4473 TD 30 10 295
1861210N15276 1861 18 NA NA NOT_NAMED 1861-07-28 18:00:00 TS 15.6000 -84.9000 main 0 0 _____________O -1 15.6000 -84.9000 TD 30 10 295
1861210N15276 1861 18 NA NA NOT_NAMED 1861-07-28 21:00:00 TS 15.8000 -85.3576 main 0 0 _____________P -1 15.8000 -85.3576 TD 30 10 295
1861210N15276 1861 18 NA CS NOT_NAMED 1861-07-29 00:00:00 TS 16.0000 -85.8000 main 11 11 _____________O -1 16.0000 -85.8000 TD 30 9 296
1861210N15276 1861 18 NA CS NOT_NAMED 1861-07-29 03:00:00 TS 16.1998 -86.2001 main 44 44 _____________P -1 16.1998 -86.2001 TD 30 9 298
1861210N15276 1861 18 NA CS NOT_NAMED 1861-07-29 06:00:00 TS 16.4000 -86.6000 main 70 70 _____________O -1 16.4000 -86.6000 TD 30 9 296
1861210N15276 1861 18 NA CS NOT_NAMED 1861-07-29 09:00:00 TS 16.5924 -87.0426 main 89 77 _____________P -1 16.5924 -87.0426 TD 32 10 295
1861210N15276 1861 18 NA CS NOT_NAMED 1861-07-29 12:00:00 TS 16.8000 -87.5000 main 77 31 _____________O -1 16.8000 -87.5000 TS 35 10 298
1861210N15276 1861 18 NA CS NOT_NAMED 1861-07-29 15:00:00 TS 17.0498 -87.9425 main 31 0 _____________P -1 17.0498 -87.9425 TS 37 10 300
1861210N15276 1861 18 NA NA NOT_NAMED 1861-07-29 18:00:00 TS 17.3000 -88.4000 main 0 0 _____________O -1 17.3000 -88.4000 TS 40 10 296
1861210N15276 1861 18 NA NA NOT_NAMED 1861-07-29 21:00:00 TS 17.5000 -88.9002 main 0 0 _____________P -1 17.5000 -88.9002 TS 35 10 293
1861210N15276 1861 18 NA NA NOT_NAMED 1861-07-30 00:00:00 TS 17.7000 -89.4000 main 0 0 _____________O -1 17.7000 -89.4000 TD 30 10 296
1861210N15276 1861 18 NA NA NOT_NAMED 1861-07-30 03:00:00 TS 17.9498 -89.8501 main 0 0 _____________P -1 17.9498 -89.8501 TD 30 10 300
1861210N15276 1861 18 NA NA NOT_NAMED 1861-07-30 06:00:00 TS 18.2000 -90.3000 main 0 0 _____________O -1 18.2000 -90.3000 TD 30 10 297
1861210N15276 1861 18 NA NA NOT_NAMED 1861-07-30 09:00:00 TS 18.3999 -90.7853 main 0 0 _____________P -1 18.3999 -90.7853 TD 30 10 293
1861210N15276 1861 18 NA GM NOT_NAMED 1861-07-30 12:00:00 TS 18.6000 -91.3000 main 0 0 _____________O -1 18.6000 -91.3000 TD 30 11 294
1861210N15276 1861 18 NA GM NOT_NAMED 1861-07-30 15:00:00 TS 18.8500 -91.8500 main 24 24 _____________P -1 18.8500 -91.8500 TD 32 12 296
1861210N15276 1861 18 NA GM NOT_NAMED 1861-07-30 18:00:00 TS 19.1000 -92.4000 main 55 55 _____________O -1 19.1000 -92.4000 TS 35 11 294
1861210N15276 1861 18 NA GM NOT_NAMED 1861-07-30 21:00:00 TS 19.2997 -92.9003 main 81 81 _____________P -1 19.2997 -92.9003 TS 37 10 293
1861210N15276 1861 18 NA GM NOT_NAMED 1861-07-31 00:00:00 TS 19.5000 -93.4000 main 124 124 _____________O -1 19.5000 -93.4000 TS 40 11 294
1861210N15276 1861 18 NA GM NOT_NAMED 1861-07-31 03:00:00 TS 19.7425 -93.9500 main 156 156 _____________P -1 19.7425 -93.9500 TS 42 12 296
1861210N15276 1861 18 NA GM NOT_NAMED 1861-07-31 06:00:00 TS 20.0000 -94.5000 main 162 150 _____________O -1 20.0000 -94.5000 TS 45 11 296
1861210N15276 1861 18 NA GM NOT_NAMED 1861-07-31 09:00:00 TS 20.2424 -95.0227 main 150 115 _____________P -1 20.2424 -95.0227 TS 45 11 298
1861210N15276 1861 18 NA GM NOT_NAMED 1861-07-31 12:00:00 TS 20.5000 -95.5000 main 115 106 _____________O -1 20.5000 -95.5000 TS 45 10 304
1861210N15276 1861 18 NA GM NOT_NAMED 1861-07-31 15:00:00 TS 20.7997 -95.9077 main 106 98 _____________P -1 20.7997 -95.9077 TS 45 10 309
1861210N15276 1861 18 NA GM NOT_NAMED 1861-07-31 18:00:00 TS 21.1000 -96.3000 main 98 70 _____________O -1 21.1000 -96.3000 TS 45 10 305
1861210N15276 1861 18 NA GM NOT_NAMED 1861-07-31 21:00:00 TS 21.3575 -96.7501 main 56 10 _____________P -1 21.3575 -96.7501 TS 45 10 301
1861210N15276 1861 18 NA GM NOT_NAMED 1861-08-01 00:00:00 TS 21.6000 -97.2000 main 10 0 _____________O -1 21.6000 -97.2000 TS 45 9 302
1861210N15276 1861 18 NA GM NOT_NAMED 1861-08-01 03:00:00 TS 21.8498 -97.6077 main 0 0 _____________P -1 21.8498 -97.6077 TS 37 9 304
1861210N15276 1861 18 NA NA NOT_NAMED 1861-08-01 06:00:00 TS 22.1000 -98.0000 main 0 0 _____________O -1 22.1000 -98.0000 TD 30 9 304
1861210N15276 1861 18 NA NA NOT_NAMED 1861-08-01 09:00:00 TS 22.3502 -98.3972 main 0 0 _____________P -1 22.3502 -98.3972 TD 30 9 304
1861210N15276 1861 18 NA NA NOT_NAMED 1861-08-01 12:00:00 TS 22.6000 -98.8000 main 0 _____________O -1 22.6000 -98.8000 TD 30 9 304

IBTrACS Databaseについて

本データベースは、米国NOAAが公開する1842年以降の世界の熱帯低気圧のベストトラックデータアーカイブInternational Best Track Archive for Climate Stewardship (IBTrACS)を、ウェブで閲覧しやすい形式に変換したものです。

最終更新日:2021-10-21